createdAt,value
2023-01-26T00:00:56.136Z,97302.06
2023-01-26T00:03:22.840Z,97296.06
2023-01-26T00:05:49.490Z,97285.72
2023-01-26T00:08:16.115Z,97282.84
2023-01-26T00:10:42.772Z,97282.75
2023-01-26T00:13:10.119Z,97276.97
2023-01-26T00:15:36.769Z,97271.47
2023-01-26T00:18:03.521Z,97263.53
2023-01-26T00:20:30.303Z,97262.94
2023-01-26T00:22:56.938Z,97253.09
2023-01-26T00:25:23.560Z,97256.47
2023-01-26T00:27:50.183Z,97253.94
2023-01-26T00:30:16.846Z,97256.34
2023-01-26T00:32:43.492Z,97250.94
2023-01-26T00:35:10.128Z,97259.81
2023-01-26T00:37:36.841Z,97263.31
2023-01-26T00:40:03.571Z,97257.91
2023-01-26T00:42:30.230Z,97259.22
2023-01-26T00:44:56.897Z,97255.84
2023-01-26T00:47:23.539Z,97261.13
2023-01-26T00:49:50.184Z,97254.38
2023-01-26T00:52:16.825Z,97251.75
2023-01-26T00:54:43.510Z,97254.38
2023-01-26T00:57:10.186Z,97239.06
2023-01-26T00:59:36.858Z,97241.06
2023-01-26T01:02:03.575Z,97236.03
2023-01-26T01:04:30.412Z,97237.13
2023-01-26T01:06:57.760Z,97235.31
2023-01-26T01:09:24.439Z,97223.47
2023-01-26T01:11:51.080Z,97217.84
2023-01-26T01:14:17.749Z,97221.16
2023-01-26T01:16:44.403Z,97221.72
2023-01-26T01:19:14.129Z,97222.94
2023-01-26T01:21:40.839Z,97228.81
2023-01-26T01:24:07.711Z,97228.94
2023-01-26T01:26:34.363Z,97222.19
2023-01-26T01:29:01.001Z,97222.94
2023-01-26T01:31:27.734Z,97220.28
2023-01-26T01:33:54.729Z,97220.03
2023-01-26T01:36:21.418Z,97218.25
2023-01-26T01:38:48.100Z,97214.88
2023-01-26T01:41:16.970Z,97216.28
2023-01-26T01:43:43.727Z,97215.72
2023-01-26T01:46:21.274Z,97210.78
2023-01-26T01:48:58.893Z,97211.09
2023-01-26T01:51:43.711Z,97205.97
2023-01-26T01:54:12.206Z,97197.94
2023-01-26T01:56:40.059Z,97202.63
2023-01-26T01:59:06.712Z,97199.75
2023-01-26T02:01:33.369Z,97193.50
2023-01-26T02:04:00.786Z,97198.63
2023-01-26T02:06:36.256Z,97199.97
2023-01-26T02:09:03.451Z,97203.03
2023-01-26T02:11:48.140Z,97194.47
2023-01-26T02:14:14.789Z,97198.34
2023-01-26T02:16:44.750Z,97198.47
2023-01-26T02:19:37.833Z,97197.09
2023-01-26T02:22:16.626Z,97192.91
2023-01-26T02:24:44.013Z,97189.06
2023-01-26T02:27:10.832Z,97189.19
2023-01-26T02:29:37.487Z,97185.72
2023-01-26T02:32:04.158Z,97185.38
2023-01-26T02:34:30.829Z,97187.50
2023-01-26T02:37:00.823Z,97188.13
2023-01-26T02:39:44.168Z,97179.16
2023-01-26T02:42:10.922Z,97183.78
2023-01-26T02:44:37.859Z,97178.63
2023-01-26T02:47:11.920Z,97177.69
2023-01-26T02:49:38.604Z,97173.03
2023-01-26T02:52:05.555Z,97172.03
2023-01-26T02:54:32.282Z,97177.31
2023-01-26T02:56:58.964Z,97175.84
2023-01-26T02:59:25.698Z,97170.69
2023-01-26T03:01:52.482Z,97166.38
2023-01-26T03:04:19.135Z,97168.91
2023-01-26T03:06:45.841Z,97166.22
2023-01-26T03:09:12.529Z,97164.25
2023-01-26T03:11:39.220Z,97153.50
2023-01-26T03:14:05.898Z,97153.72
2023-01-26T03:16:32.573Z,97148.97
2023-01-26T03:18:59.280Z,97150.88
2023-01-26T03:21:25.957Z,97143.06
2023-01-26T03:23:52.659Z,97142.84
2023-01-26T03:26:19.315Z,97142.22
2023-01-26T03:28:46.026Z,97138.63
2023-01-26T03:31:12.759Z,97138.63
2023-01-26T03:33:39.421Z,97134.41
2023-01-26T03:36:06.255Z,97127.22
2023-01-26T03:38:32.889Z,97132.41
2023-01-26T03:40:59.528Z,97125.19
2023-01-26T03:43:26.195Z,97128.03
2023-01-26T03:45:53.386Z,97124.78
2023-01-26T03:48:20.022Z,97114.84
2023-01-26T03:50:46.788Z,97121.19
2023-01-26T03:53:14.887Z,97123.34
2023-01-26T03:55:41.556Z,97123.13
2023-01-26T03:58:08.234Z,97128.38
2023-01-26T04:00:34.888Z,97126.47
2023-01-26T04:03:01.538Z,97117.00
2023-01-26T04:05:28.177Z,97115.09
2023-01-26T04:07:54.839Z,97113.28
2023-01-26T04:10:21.536Z,97111.38
2023-01-26T04:12:48.805Z,97113.16
2023-01-26T04:15:15.486Z,97117.59
2023-01-26T04:17:42.149Z,97109.56
2023-01-26T04:20:09.611Z,97109.13
2023-01-26T04:22:37.279Z,97109.72
2023-01-26T04:25:03.951Z,97109.97
2023-01-26T04:27:30.604Z,97105.13
2023-01-26T04:29:57.340Z,97098.47
2023-01-26T04:32:23.996Z,97097.03
2023-01-26T04:34:50.691Z,97100.50
2023-01-26T04:37:17.431Z,97100.50
2023-01-26T04:39:44.078Z,97098.94
2023-01-26T04:42:10.731Z,97084.69
2023-01-26T04:44:37.449Z,97088.75
2023-01-26T04:47:04.110Z,97085.75
2023-01-26T04:49:30.761Z,97078.69
2023-01-26T04:51:57.410Z,97080.69
2023-01-26T04:54:24.062Z,97078.41
2023-01-26T04:56:50.710Z,97078.06
2023-01-26T04:59:17.336Z,97085.13
2023-01-26T05:01:44.353Z,97074.34
2023-01-26T05:04:11.413Z,97076.50
2023-01-26T05:06:38.125Z,97070.50
2023-01-26T05:09:05.017Z,97074.69
2023-01-26T05:11:31.724Z,97070.38
2023-01-26T05:13:58.469Z,97062.84
2023-01-26T05:16:25.234Z,97058.28
2023-01-26T05:18:51.921Z,97065.25
2023-01-26T05:21:18.556Z,97059.97
2023-01-26T05:23:45.211Z,97059.25
2023-01-26T05:26:11.872Z,97061.88
2023-01-26T05:28:38.537Z,97063.56
2023-01-26T05:31:05.286Z,97064.16
2023-01-26T05:33:31.939Z,97056.94
2023-01-26T05:35:58.604Z,97060.28
2023-01-26T05:38:25.257Z,97064.72
2023-01-26T05:40:51.881Z,97057.34
2023-01-26T05:43:18.596Z,97066.41
2023-01-26T05:45:45.304Z,97065.00
2023-01-26T05:48:11.965Z,97062.72
2023-01-26T05:50:38.652Z,97061.06
2023-01-26T05:53:05.409Z,97059.72
2023-01-26T05:55:32.440Z,97061.66
2023-01-26T05:57:59.105Z,97051.94
2023-01-26T06:00:25.855Z,97052.06
2023-01-26T06:02:52.507Z,97045.00
2023-01-26T06:05:19.163Z,97044.03
2023-01-26T06:07:45.964Z,97044.28
2023-01-26T06:10:12.846Z,97040.78
2023-01-26T06:12:39.689Z,97044.38
2023-01-26T06:15:07.249Z,97045.00
2023-01-26T06:17:33.908Z,97034.56
2023-01-26T06:20:00.574Z,97049.41
2023-01-26T06:22:27.215Z,97046.78
2023-01-26T06:24:53.927Z,97037.78
2023-01-26T06:27:20.558Z,97036.13
2023-01-26T06:29:47.238Z,97032.66
2023-01-26T06:32:14.060Z,97036.25
2023-01-26T06:34:40.790Z,97048.78
2023-01-26T06:37:07.475Z,97040.31
2023-01-26T06:39:34.157Z,97049.19
2023-01-26T06:42:00.857Z,97047.22
2023-01-26T06:44:28.203Z,97061.13
2023-01-26T06:46:54.870Z,97054.31
2023-01-26T06:49:21.525Z,97052.88
2023-01-26T06:51:48.060Z,97056.34
2023-01-26T06:54:14.752Z,97045.69
2023-01-26T06:56:41.571Z,97052.88
2023-01-26T06:59:08.250Z,97054.41
2023-01-26T07:01:37.225Z,97053.59
2023-01-26T07:04:03.955Z,97048.66
2023-01-26T07:06:30.692Z,97053.81
2023-01-26T07:08:57.326Z,97051.41
2023-01-26T07:11:23.959Z,97046.97
2023-01-26T07:13:50.592Z,97042.88
2023-01-26T07:16:17.467Z,97041.94
2023-01-26T07:18:44.262Z,97046.13
2023-01-26T07:21:12.163Z,97040.84
2023-01-26T07:23:38.813Z,97038.34
2023-01-26T07:26:05.619Z,97034.16
2023-01-26T07:28:32.384Z,97040.25
2023-01-26T07:30:59.235Z,97040.97
2023-01-26T07:33:25.956Z,97036.91
2023-01-26T07:35:58.695Z,97034.38
2023-01-26T07:38:25.440Z,97035.22
2023-01-26T07:40:52.090Z,97033.31
2023-01-26T07:43:18.816Z,97029.94
2023-01-26T07:45:46.198Z,97029.94
2023-01-26T07:48:12.880Z,97030.91
2023-01-26T07:50:39.587Z,97029.22
2023-01-26T07:53:11.712Z,97032.06
2023-01-26T07:55:38.698Z,97034.97
2023-01-26T07:58:05.358Z,97023.84
2023-01-26T08:00:32.129Z,97025.03
2023-01-26T08:02:58.851Z,97034.59
2023-01-26T08:05:25.493Z,97028.03
2023-01-26T08:07:52.312Z,97024.88
2023-01-26T08:10:18.970Z,97033.44
2023-01-26T08:12:45.593Z,97033.44
2023-01-26T08:15:12.277Z,97019.97
2023-01-26T08:17:39.449Z,97024.28
2023-01-26T08:20:06.608Z,97027.78
2023-01-26T08:22:33.296Z,97031.03
2023-01-26T08:24:59.941Z,97037.22
2023-01-26T08:27:26.568Z,97037.88
2023-01-26T08:29:53.299Z,97033.38
2023-01-26T08:32:19.979Z,97022.63
2023-01-26T08:34:46.738Z,97030.53
2023-01-26T08:37:13.382Z,97032.59
2023-01-26T08:39:40.022Z,97023.56
2023-01-26T08:42:06.666Z,97024.47
2023-01-26T08:44:33.328Z,97030.97
2023-01-26T08:46:59.983Z,97028.22
2023-01-26T08:49:26.636Z,97030.59
2023-01-26T08:51:53.326Z,97024.28
2023-01-26T08:54:20.023Z,97030.16
2023-01-26T08:56:46.660Z,97033.38
2023-01-26T08:59:13.317Z,97034.50
2023-01-26T09:01:40.014Z,97027.84
2023-01-26T09:04:06.685Z,97024.50
2023-01-26T09:06:33.388Z,97019.25
2023-01-26T09:09:00.095Z,97026.94
2023-01-26T09:11:26.767Z,97029.94
2023-01-26T09:13:53.590Z,97026.25
2023-01-26T09:16:20.295Z,97026.38
2023-01-26T09:18:52.431Z,97019.19
2023-01-26T09:21:19.191Z,97019.06
2023-01-26T09:23:45.865Z,97023.75
2023-01-26T09:26:12.519Z,97023.91
2023-01-26T09:28:39.167Z,97025.69
2023-01-26T09:31:06.773Z,97021.13
2023-01-26T09:33:33.575Z,97026.88
2023-01-26T09:36:04.748Z,97021.53
2023-01-26T09:38:31.389Z,97027.75
2023-01-26T09:41:10.058Z,97025.00
2023-01-26T09:43:39.238Z,97026.06
2023-01-26T09:46:20.867Z,97027.75
2023-01-26T09:48:50.044Z,97026.66
2023-01-26T09:51:48.125Z,97025.56
2023-01-26T09:54:35.710Z,97021.41
2023-01-26T09:57:02.836Z,97022.25
2023-01-26T09:59:45.105Z,97014.09
2023-01-26T10:02:24.758Z,97007.75
2023-01-26T10:04:54.376Z,97013.38
2023-01-26T10:07:22.001Z,97015.78
2023-01-26T10:09:49.965Z,97018.91
2023-01-26T10:12:19.076Z,97022.50
2023-01-26T10:14:52.892Z,97017.09
2023-01-26T10:17:29.379Z,97018.78
2023-01-26T10:20:09.212Z,97023.09
2023-01-26T10:22:46.721Z,97022.84
2023-01-26T10:25:17.364Z,97017.47
2023-01-26T10:27:44.682Z,97009.44
2023-01-26T10:30:18.242Z,97017.00
2023-01-26T10:32:45.890Z,97017.00
2023-01-26T10:35:23.327Z,97015.19
2023-01-26T10:37:50.735Z,97005.75
2023-01-26T10:40:17.559Z,97006.56
2023-01-26T10:42:53.961Z,97014.38
2023-01-26T10:45:33.809Z,97005.50
2023-01-26T10:48:15.282Z,97006.44
2023-01-26T10:50:42.893Z,96999.88
2023-01-26T10:53:23.580Z,96996.72
2023-01-26T10:56:09.927Z,96999.47
2023-01-26T10:58:45.813Z,96997.69
2023-01-26T11:01:15.813Z,96993.03
2023-01-26T11:03:46.101Z,96989.44
2023-01-26T11:06:19.538Z,96976.44
2023-01-26T11:08:48.277Z,96987.00
2023-01-26T11:11:26.933Z,96979.81
2023-01-26T11:14:16.795Z,96983.41
2023-01-26T11:16:51.657Z,96984.94
2023-01-26T11:19:32.934Z,96971.50
2023-01-26T11:22:03.551Z,96975.69
2023-01-26T11:24:42.466Z,96968.16
2023-01-26T11:27:33.842Z,96981.00
2023-01-26T11:30:29.555Z,96980.41
2023-01-26T11:33:18.267Z,96969.47
2023-01-26T11:35:54.867Z,96964.06
2023-01-26T11:38:43.944Z,96963.59
2023-01-26T11:44:54.059Z,96966.16
2023-01-26T11:47:37.708Z,96965.34
2023-01-26T11:50:24.382Z,96961.38
2023-01-26T11:53:11.105Z,96958.97
2023-01-26T11:56:10.820Z,96950.78
2023-01-26T11:58:43.474Z,96947.34
2023-01-26T12:01:24.128Z,96942.31
2023-01-26T12:03:51.697Z,96948.44
2023-01-26T12:06:25.368Z,96940.63
2023-01-26T12:09:02.018Z,96931.53
2023-01-26T12:11:34.651Z,96928.16
2023-01-26T12:14:03.236Z,96918.94
2023-01-26T12:16:43.968Z,96919.66
2023-01-26T12:19:22.578Z,96915.44
2023-01-26T12:21:51.199Z,96918.28
2023-01-26T12:24:48.257Z,96911.19
2023-01-26T12:27:15.469Z,96913.72
2023-01-26T12:29:55.119Z,96913.47
2023-01-26T12:32:22.757Z,96916.66
2023-01-26T12:34:51.312Z,96921.00
2023-01-26T12:37:46.040Z,96919.31
2023-01-26T12:40:19.664Z,96914.28
2023-01-26T12:42:50.317Z,96913.41
2023-01-26T12:45:30.930Z,96905.66
2023-01-26T12:48:19.617Z,96912.59
2023-01-26T12:50:50.262Z,96915.28
2023-01-26T12:53:37.761Z,96895.66
2023-01-26T12:56:32.599Z,96896.63
2023-01-26T12:59:38.607Z,96891.38
2023-01-26T13:02:17.076Z,96885.50
2023-01-26T13:04:44.783Z,96891.00
2023-01-26T13:07:37.057Z,96885.25
2023-01-26T13:10:16.482Z,96882.34
2023-01-26T13:12:48.991Z,96885.59
2023-01-26T13:15:16.953Z,96884.47
2023-01-26T13:17:51.469Z,96871.75
2023-01-26T13:20:24.056Z,96879.03
2023-01-26T13:22:51.963Z,96873.47
2023-01-26T13:25:31.971Z,96869.38
2023-01-26T13:28:00.155Z,96878.78
2023-01-26T13:30:28.486Z,96877.94
2023-01-26T13:33:09.307Z,96871.47
2023-01-26T13:35:36.112Z,96872.03
2023-01-26T13:38:15.152Z,96875.91
2023-01-26T13:40:44.040Z,96869.41
2023-01-26T13:43:27.161Z,96859.38
2023-01-26T13:46:03.641Z,96868.81
2023-01-26T13:48:36.962Z,96863.06
2023-01-26T13:51:03.831Z,96864.81
2023-01-26T13:53:49.196Z,96863.00
2023-01-26T13:56:32.865Z,96860.72
2023-01-26T13:59:08.865Z,96852.22
2023-01-26T14:01:41.159Z,96859.88
2023-01-26T14:04:15.688Z,96863.97
2023-01-26T14:06:43.857Z,96856.75
2023-01-26T14:09:11.628Z,96856.50
2023-01-26T14:11:38.281Z,96850.97
2023-01-26T14:14:04.935Z,96857.91
2023-01-26T14:16:36.135Z,96858.13
2023-01-26T14:19:06.506Z,96855.63
2023-01-26T14:21:33.306Z,96857.72
2023-01-26T14:24:00.020Z,96862.31
2023-01-26T14:26:33.319Z,96862.03
2023-01-26T14:29:00.073Z,96866.41
2023-01-26T14:31:27.593Z,96864.88
2023-01-26T14:33:55.994Z,96867.03
2023-01-26T14:36:22.656Z,96860.91
2023-01-26T14:38:51.107Z,96859.22
2023-01-26T14:41:18.876Z,96853.13
2023-01-26T14:43:45.559Z,96850.56
2023-01-26T14:46:36.841Z,96854.78
2023-01-26T14:49:17.856Z,96854.97
2023-01-26T14:51:44.693Z,96852.97
2023-01-26T14:54:18.206Z,96861.47
2023-01-26T14:56:46.221Z,96852.97
2023-01-26T14:59:28.129Z,96861.09
2023-01-26T15:02:37.323Z,96862.44
2023-01-26T15:05:15.970Z,96868.19
2023-01-26T15:07:43.911Z,96873.34
2023-01-26T15:10:39.023Z,96879.34
2023-01-26T15:13:14.707Z,96883.31
2023-01-26T15:15:46.248Z,96877.41
2023-01-26T15:18:12.783Z,96880.03
2023-01-26T15:21:05.390Z,96874.94
2023-01-26T15:23:35.923Z,96877.44
2023-01-26T15:26:10.448Z,96877.44
2023-01-26T15:28:37.134Z,96875.78
2023-01-26T15:31:04.122Z,96883.19
2023-01-26T15:33:47.450Z,96877.59
2023-01-26T15:36:46.501Z,96874.69
2023-01-26T15:39:14.479Z,96877.31
2023-01-26T15:41:42.221Z,96880.09
2023-01-26T15:44:15.525Z,96881.19
2023-01-26T15:46:42.247Z,96884.16
2023-01-26T15:49:08.919Z,96883.56
2023-01-26T15:51:36.562Z,96884.97
2023-01-26T15:54:03.460Z,96882.88
2023-01-26T15:56:30.133Z,96878.03
2023-01-26T15:58:57.114Z,96878.03
2023-01-26T16:01:23.783Z,96888.72
2023-01-26T16:03:50.600Z,96880.94
2023-01-26T16:06:24.904Z,96878.16
2023-01-26T16:08:52.149Z,96886.34
2023-01-26T16:11:18.947Z,96888.97
2023-01-26T16:13:54.020Z,96892.91
2023-01-26T16:16:28.923Z,96882.94
2023-01-26T16:18:56.182Z,96886.78
2023-01-26T16:21:27.353Z,96894.75
2023-01-26T16:23:54.436Z,96889.38
2023-01-26T16:26:21.106Z,96883.16
2023-01-26T16:28:47.810Z,96892.63
2023-01-26T16:31:15.970Z,96894.47
2023-01-26T16:33:42.703Z,96893.44
2023-01-26T16:36:10.615Z,96893.22
2023-01-26T16:38:37.263Z,96900.44
2023-01-26T16:41:03.912Z,96897.22
2023-01-26T16:43:30.567Z,96892.78
2023-01-26T16:45:57.233Z,96895.59
2023-01-26T16:48:23.919Z,96894.56
2023-01-26T16:50:51.560Z,96899.72
2023-01-26T16:53:22.509Z,96902.84
2023-01-26T16:55:49.183Z,96894.81
2023-01-26T16:58:15.952Z,96897.09
2023-01-26T17:00:42.636Z,96900.47
2023-01-26T17:03:10.967Z,96896.75
2023-01-26T17:05:37.631Z,96902.97
2023-01-26T17:08:04.499Z,96898.53
2023-01-26T17:10:31.202Z,96905.75
2023-01-26T17:12:57.835Z,96895.06
2023-01-26T17:15:24.470Z,96896.88
2023-01-26T17:17:51.469Z,96906.84
2023-01-26T17:20:20.130Z,96908.53
2023-01-26T17:22:47.387Z,96899.03
2023-01-26T17:25:16.699Z,96897.97
2023-01-26T17:27:44.415Z,96899.63
2023-01-26T17:30:11.276Z,96904.06
2023-01-26T17:32:37.941Z,96899.13
2023-01-26T17:35:04.712Z,96893.38
2023-01-26T17:37:31.515Z,96897.84
2023-01-26T17:39:58.436Z,96893.38
2023-01-26T17:42:25.069Z,96886.19
2023-01-26T17:44:51.735Z,96889.66
2023-01-26T17:47:18.360Z,96884.63
2023-01-26T17:49:45.020Z,96890.03
2023-01-26T17:52:11.668Z,96887.41
2023-01-26T17:54:38.327Z,96889.91
2023-01-26T17:57:05.021Z,96886.94
2023-01-26T17:59:31.705Z,96888.59
2023-01-26T18:01:58.388Z,96887.50
2023-01-26T18:04:25.057Z,96883.44
2023-01-26T18:06:51.762Z,96881.50
2023-01-26T18:09:18.462Z,96896.50
2023-01-26T18:11:45.100Z,96888.72
2023-01-26T18:14:11.746Z,96887.63
2023-01-26T18:16:39.093Z,96898.56
2023-01-26T18:19:05.872Z,96891.75
2023-01-26T18:21:32.548Z,96892.09
2023-01-26T18:24:03.169Z,96893.91
2023-01-26T18:26:31.828Z,96886.69
2023-01-26T18:28:59.715Z,96891.88
2023-01-26T18:31:27.913Z,96877.72
2023-01-26T18:33:55.662Z,96880.22
2023-01-26T18:36:22.354Z,96887.31
2023-01-26T18:38:55.832Z,96875.78
2023-01-26T18:41:23.090Z,96876.63
2023-01-26T18:43:50.870Z,96872.66
2023-01-26T18:46:17.510Z,96878.19
2023-01-26T18:48:44.174Z,96875.56
2023-01-26T18:51:10.834Z,96881.09
2023-01-26T18:53:37.505Z,96882.66
2023-01-26T18:56:10.321Z,96881.94
2023-01-26T18:58:37.480Z,96891.19
2023-01-26T19:01:04.878Z,96882.41
2023-01-26T19:03:34.559Z,96893.94
2023-01-26T19:06:02.090Z,96892.41
2023-01-26T19:08:28.966Z,96895.75
2023-01-26T19:11:06.242Z,96881.72
2023-01-26T19:13:33.064Z,96890.72
2023-01-26T19:16:00.024Z,96894.06
2023-01-26T19:18:26.661Z,96881.25
2023-01-26T19:20:57.353Z,96898.28
2023-01-26T19:23:24.069Z,96885.66
2023-01-26T19:25:50.756Z,96892.03
2023-01-26T19:28:17.397Z,96887.38
2023-01-26T19:30:44.128Z,96891.06
2023-01-26T19:33:11.093Z,96880.16
2023-01-26T19:35:38.013Z,96871.41
2023-01-26T19:38:04.817Z,96870.19
2023-01-26T19:40:34.511Z,96866.59
2023-01-26T19:43:01.370Z,96864.06
2023-01-26T19:45:28.068Z,96866.34
2023-01-26T19:47:54.714Z,96869.09
2023-01-26T19:50:21.401Z,96862.97
2023-01-26T19:52:48.047Z,96873.78
2023-01-26T19:55:14.957Z,96875.84
2023-01-26T19:57:41.693Z,96863.81
2023-01-26T20:00:08.842Z,96863.59
2023-01-26T20:02:35.926Z,96857.09
2023-01-26T20:05:02.576Z,96862.97
2023-01-26T20:07:29.229Z,96870.31
2023-01-26T20:09:56.021Z,96866.84
2023-01-26T20:12:22.777Z,96869.09
2023-01-26T20:14:49.444Z,96862.41
2023-01-26T20:17:16.168Z,96861.78
2023-01-26T20:19:42.827Z,96858.41
2023-01-26T20:22:09.522Z,96857.00
2023-01-26T20:24:36.191Z,96857.00
2023-01-26T20:27:02.927Z,96861.31
2023-01-26T20:29:29.579Z,96856.16
2023-01-26T20:31:56.308Z,96858.41
2023-01-26T20:34:23.024Z,96855.19
2023-01-26T20:36:49.729Z,96857.97
2023-01-26T20:39:16.870Z,96856.31
2023-01-26T20:41:43.682Z,96863.00
2023-01-26T20:44:10.307Z,96863.97
2023-01-26T20:46:40.344Z,96867.72
2023-01-26T20:49:07.892Z,96860.25
2023-01-26T20:51:34.891Z,96853.91
2023-01-26T20:54:02.253Z,96854.75
2023-01-26T20:56:28.942Z,96858.97
2023-01-26T20:58:55.669Z,96852.72
2023-01-26T21:01:22.724Z,96851.50
2023-01-26T21:03:49.430Z,96859.53
2023-01-26T21:06:16.622Z,96855.09
2023-01-26T21:08:43.297Z,96856.19
2023-01-26T21:11:14.615Z,96858.34
2023-01-26T21:13:41.284Z,96859.22
2023-01-26T21:16:09.115Z,96850.25
2023-01-26T21:18:35.775Z,96853.47
2023-01-26T21:21:04.144Z,96850.25
2023-01-26T21:23:31.201Z,96852.75
2023-01-26T21:26:01.968Z,96848.56
2023-01-26T21:28:28.748Z,96854.53
2023-01-26T21:31:02.079Z,96855.38
2023-01-26T21:33:31.851Z,96858.38
2023-01-26T21:35:58.924Z,96850.38
2023-01-26T21:38:25.582Z,96852.25
2023-01-26T21:41:02.758Z,96847.00
2023-01-26T21:43:29.812Z,96841.34
2023-01-26T21:45:57.159Z,96832.34
2023-01-26T21:48:23.848Z,96837.06
2023-01-26T21:50:50.476Z,96829.97
2023-01-26T21:53:17.563Z,96835.72
2023-01-26T21:55:45.897Z,96827.69
2023-01-26T21:58:12.561Z,96831.16
2023-01-26T22:00:39.296Z,96828.66
2023-01-26T22:03:06.042Z,96824.53
2023-01-26T22:05:32.756Z,96824.44
2023-01-26T22:07:59.429Z,96823.97
2023-01-26T22:10:26.112Z,96818.34
2023-01-26T22:12:52.777Z,96818.84
2023-01-26T22:15:19.471Z,96821.47
2023-01-26T22:17:46.121Z,96814.53
2023-01-26T22:20:13.156Z,96818.84
2023-01-26T22:22:40.011Z,96811.19
2023-01-26T22:25:06.813Z,96815.25
2023-01-26T22:27:33.451Z,96806.75
2023-01-26T22:30:00.296Z,96815.97
2023-01-26T22:32:26.944Z,96812.72
2023-01-26T22:34:53.619Z,96811.06
2023-01-26T22:37:20.425Z,96798.69
2023-01-26T22:39:47.095Z,96798.00
2023-01-26T22:42:13.756Z,96809.25
2023-01-26T22:44:40.441Z,96801.00
2023-01-26T22:47:07.120Z,96801.22
2023-01-26T22:49:33.791Z,96790.66
2023-01-26T22:52:00.469Z,96787.44
2023-01-26T22:54:27.197Z,96792.72
2023-01-26T22:56:53.849Z,96787.31
2023-01-26T22:59:20.541Z,96778.22
2023-01-26T23:01:47.244Z,96785.66
2023-01-26T23:04:13.964Z,96788.16
2023-01-26T23:06:40.661Z,96786.22
2023-01-26T23:09:07.349Z,96780.25
2023-01-26T23:11:34.046Z,96773.44
2023-01-26T23:14:00.696Z,96779.41
2023-01-26T23:16:27.466Z,96771.25
2023-01-26T23:18:55.391Z,96776.91
2023-01-26T23:21:22.088Z,96774.25
2023-01-26T23:23:48.824Z,96779.16
2023-01-26T23:26:15.541Z,96771.84
2023-01-26T23:28:42.903Z,96778.22
2023-01-26T23:31:10.688Z,96778.84
2023-01-26T23:33:37.621Z,96770.66
2023-01-26T23:36:04.664Z,96777.16
2023-01-26T23:38:31.372Z,96777.03
2023-01-26T23:40:58.295Z,96776.31
2023-01-26T23:43:24.971Z,96778.69
2023-01-26T23:45:51.667Z,96774.13
2023-01-26T23:48:18.763Z,96783.13
2023-01-26T23:50:45.514Z,96780.63
2023-01-26T23:53:12.194Z,96786.06
2023-01-26T23:55:42.181Z,96776.81
2023-01-26T23:58:09.193Z,96786.75
